JA4041 RJT-RJDA

Flight info

Callsign JA4041
Flight time N/A
Altitude 5500
Route ASOAIRFIELD/RJDA/C172
Aircraft C172/L-G/C

Departure

Time N/A
Airport RJT

Arrival

Time 2026-05-06 06:24
Airport Amakusa Airport (RJDA)
Time Latitude Longitude Altitude Speed Heading
2026-05-06 05:42 33.00824 131.09965 2726 ft 0 kts 46°
2026-05-06 05:45 33.00835 131.09973 2727 ft 6 kts 25°
2026-05-06 05:46 33.00873 131.10013 2726 ft 9 kts 51°
2026-05-06 05:46 33.00903 131.10095 2725 ft 14 kts 78°
2026-05-06 05:46 33.00918 131.10224 2724 ft 18 kts 86°
2026-05-06 05:46 33.00934 131.10331 2724 ft 8 kts 118°
2026-05-06 05:47 33.00923 131.10318 2725 ft 2 kts 306°
2026-05-06 05:47 33.00924 131.10259 2725 ft 20 kts 265°
2026-05-06 05:47 33.00887 131.09927 2728 ft 58 kts 259°
2026-05-06 05:47 33.00809 131.09466 2725 ft 51 kts 258°
2026-05-06 05:48 33.00921 131.10333 2724 ft 0 kts 231°
2026-05-06 05:48 33.00920 131.10331 2724 ft 4 kts 244°
2026-05-06 05:48 33.00911 131.10134 2725 ft 44 kts 264°
2026-05-06 05:48 33.00845 131.09661 2792 ft 64 kts 257°
2026-05-06 05:49 33.00660 131.09150 2904 ft 72 kts 241°
2026-05-06 05:49 33.00388 131.08589 2990 ft 84 kts 253°
2026-05-06 05:49 33.00335 131.07909 3191 ft 77 kts 270°
2026-05-06 05:49 33.00319 131.07304 3408 ft 75 kts 256°
2026-05-06 05:50 32.99958 131.06855 3513 ft 83 kts 212°
2026-05-06 05:50 32.99392 131.06589 3660 ft 87 kts 202°
2026-05-06 05:50 32.98842 131.06401 3902 ft 82 kts 195°
2026-05-06 05:50 32.98233 131.06225 3901 ft 96 kts 201°
2026-05-06 05:51 32.97628 131.05998 4067 ft 90 kts 204°
2026-05-06 05:51 32.97085 131.05638 4212 ft 92 kts 215°
2026-05-06 05:51 32.96546 131.05269 4421 ft 89 kts 213°
2026-05-06 05:51 32.96051 131.04811 4583 ft 90 kts 229°
2026-05-06 05:52 32.95753 131.04155 4762 ft 90 kts 246°
2026-05-06 05:52 32.95401 131.03528 4889 ft 96 kts 231°
2026-05-06 05:52 32.94853 131.03128 5060 ft 94 kts 190°
2026-05-06 05:52 32.94218 131.03030 5249 ft 91 kts 190°
2026-05-06 05:53 32.93595 131.02869 5412 ft 91 kts 192°
2026-05-06 05:53 32.92997 131.02711 5605 ft 86 kts 192°
2026-05-06 05:53 32.92396 131.02584 5750 ft 87 kts 194°
2026-05-06 05:53 32.91846 131.02451 5995 ft 77 kts 193°
2026-05-06 05:54 32.91330 131.02256 6141 ft 77 kts 201°
2026-05-06 05:54 32.90818 131.02111 6314 ft 77 kts 192°
2026-05-06 05:54 32.90319 131.01953 6502 ft 73 kts 200°
2026-05-06 05:54 32.89885 131.01667 6664 ft 70 kts 221°
2026-05-06 05:55 32.89458 131.01331 6768 ft 73 kts 210°
2026-05-06 05:55 32.89046 131.01043 6954 ft 65 kts 212°
2026-05-06 05:55 32.88629 131.00719 6919 ft 87 kts 216°
2026-05-06 05:55 32.88104 131.00275 6987 ft 89 kts 213°
2026-05-06 05:56 32.87549 130.99927 6787 ft 96 kts 215°
2026-05-06 05:56 32.87076 130.99317 6504 ft 104 kts 231°
2026-05-06 05:56 32.86639 130.98628 6227 ft 105 kts 232°
2026-05-06 05:56 32.86205 130.97925 5935 ft 106 kts 235°
2026-05-06 05:57 32.85781 130.97190 5774 ft 109 kts 232°
2026-05-06 05:57 32.85256 130.96504 5568 ft 119 kts 221°
2026-05-06 05:57 32.84636 130.95877 5451 ft 119 kts 219°
2026-05-06 05:57 32.84005 130.95296 5437 ft 113 kts 219°
2026-05-06 05:58 32.83456 130.94642 5403 ft 110 kts 235°
2026-05-06 05:58 32.83032 130.93917 5435 ft 103 kts 234°
2026-05-06 05:58 32.82613 130.93213 5362 ft 108 kts 235°
2026-05-06 05:58 32.82178 130.92470 5279 ft 110 kts 236°
2026-05-06 05:59 32.81756 130.91722 5276 ft 105 kts 236°
2026-05-06 05:59 32.81325 130.91044 5305 ft 102 kts 229°
2026-05-06 05:59 32.80866 130.90370 5250 ft 108 kts 231°
2026-05-06 05:59 32.80415 130.89662 5276 ft 107 kts 234°
2026-05-06 06:00 32.79977 130.88975 5352 ft 103 kts 232°
2026-05-06 06:00 32.79534 130.88267 5321 ft 108 kts 233°
2026-05-06 06:00 32.79084 130.87556 5307 ft 109 kts 231°
2026-05-06 06:00 32.78585 130.86843 5231 ft 113 kts 230°
2026-05-06 06:01 32.78101 130.86129 5251 ft 110 kts 230°
2026-05-06 06:01 32.77641 130.85420 5289 ft 107 kts 230°
2026-05-06 06:01 32.77163 130.84728 5268 ft 108 kts 230°
2026-05-06 06:01 32.76751 130.83997 5275 ft 107 kts 233°
2026-05-06 06:02 32.76311 130.83289 5252 ft 108 kts 230°
2026-05-06 06:02 32.75838 130.82588 5239 ft 110 kts 230°
2026-05-06 06:02 32.75373 130.81877 5251 ft 108 kts 232°
2026-05-06 06:02 32.74936 130.81154 5212 ft 108 kts 235°
2026-05-06 06:03 32.74519 130.80430 5228 ft 105 kts 233°
2026-05-06 06:03 32.74111 130.79716 5234 ft 104 kts 234°
2026-05-06 06:03 32.73714 130.79002 5232 ft 104 kts 234°
2026-05-06 06:03 32.73320 130.78275 5234 ft 105 kts 236°
2026-05-06 06:04 32.72930 130.77539 5230 ft 106 kts 237°
2026-05-06 06:04 32.72552 130.76808 5229 ft 104 kts 237°
2026-05-06 06:04 32.72176 130.76064 5228 ft 105 kts 237°
2026-05-06 06:04 32.71809 130.75317 5227 ft 105 kts 238°
2026-05-06 06:05 32.71446 130.74564 5230 ft 106 kts 238°
2026-05-06 06:05 32.71088 130.73800 5230 ft 106 kts 240°
2026-05-06 06:05 32.70735 130.73023 5229 ft 108 kts 241°
2026-05-06 06:05 32.70384 130.72232 5227 ft 108 kts 241°
2026-05-06 06:06 32.70041 130.71436 5224 ft 109 kts 242°
2026-05-06 06:06 32.69705 130.70635 5220 ft 107 kts 243°
2026-05-06 06:06 32.69380 130.69849 5215 ft 107 kts 240°
2026-05-06 06:06 32.69062 130.69048 5218 ft 107 kts 242°
2026-05-06 06:07 32.68745 130.68232 5219 ft 110 kts 242°
2026-05-06 06:07 32.68430 130.67401 5217 ft 110 kts 243°
2026-05-06 06:07 32.68128 130.66569 5215 ft 110 kts 245°
2026-05-06 06:07 32.67837 130.65736 5215 ft 109 kts 246°
2026-05-06 06:08 32.67552 130.64898 5210 ft 109 kts 246°
2026-05-06 06:08 32.67277 130.64063 5208 ft 109 kts 246°
2026-05-06 06:08 32.67008 130.63226 5208 ft 108 kts 246°
2026-05-06 06:08 32.66748 130.62393 5206 ft 107 kts 246°
2026-05-06 06:09 32.66499 130.61561 5205 ft 109 kts 249°
2026-05-06 06:09 32.66253 130.60711 5202 ft 109 kts 250°
2026-05-06 06:09 32.66016 130.59863 5201 ft 108 kts 250°
2026-05-06 06:09 32.65788 130.59017 5201 ft 108 kts 250°
2026-05-06 06:10 32.65566 130.58159 5204 ft 110 kts 251°
2026-05-06 06:10 32.65349 130.57293 5199 ft 109 kts 251°
2026-05-06 06:10 32.65141 130.56430 5199 ft 109 kts 252°
2026-05-06 06:10 32.64939 130.55561 5196 ft 109 kts 253°
2026-05-06 06:11 32.64742 130.54694 5104 ft 110 kts 252°
2026-05-06 06:11 32.64531 130.53840 4960 ft 107 kts 252°
2026-05-06 06:11 32.64326 130.52981 4774 ft 110 kts 252°
2026-05-06 06:11 32.64115 130.52098 4553 ft 112 kts 252°
2026-05-06 06:12 32.63891 130.51207 4351 ft 111 kts 251°
2026-05-06 06:12 32.63677 130.50325 4116 ft 112 kts 252°
2026-05-06 06:12 32.63388 130.49471 3920 ft 110 kts 241°
2026-05-06 06:12 32.63017 130.48678 3723 ft 110 kts 241°
2026-05-06 06:13 32.62656 130.47880 3522 ft 109 kts 242°
2026-05-06 06:13 32.62317 130.47088 3372 ft 104 kts 244°
2026-05-06 06:13 32.61997 130.46324 3304 ft 105 kts 242°
2026-05-06 06:13 32.61608 130.45602 3279 ft 105 kts 235°
2026-05-06 06:14 32.61188 130.44896 3234 ft 106 kts 236°
2026-05-06 06:14 32.60799 130.44159 3205 ft 105 kts 241°
2026-05-06 06:14 32.60463 130.43375 3159 ft 107 kts 241°
2026-05-06 06:14 32.60054 130.42655 3147 ft 105 kts 232°
2026-05-06 06:15 32.59583 130.41997 3115 ft 104 kts 230°
2026-05-06 06:15 32.59181 130.41275 3090 ft 105 kts 235°
2026-05-06 06:15 32.58781 130.40539 3003 ft 110 kts 236°
2026-05-06 06:15 32.58399 130.39742 2942 ft 110 kts 238°
2026-05-06 06:16 32.58015 130.38952 2857 ft 111 kts 237°
2026-05-06 06:16 32.57624 130.38148 2747 ft 113 kts 239°
2026-05-06 06:16 32.57224 130.37336 2605 ft 118 kts 240°
2026-05-06 06:16 32.56815 130.36499 2516 ft 115 kts 238°
2026-05-06 06:17 32.56403 130.35753 2556 ft 106 kts 234°
2026-05-06 06:17 32.55959 130.35023 2452 ft 111 kts 234°
2026-05-06 06:17 32.55491 130.34280 2378 ft 111 kts 231°
2026-05-06 06:17 32.55045 130.33550 2362 ft 107 kts 236°
2026-05-06 06:18 32.54626 130.32826 2332 ft 107 kts 234°
2026-05-06 06:18 32.54194 130.32089 2230 ft 112 kts 238°
2026-05-06 06:18 32.53832 130.31256 2157 ft 112 kts 245°
2026-05-06 06:18 32.53489 130.30432 2081 ft 113 kts 243°
2026-05-06 06:19 32.53126 130.29624 2006 ft 113 kts 242°
2026-05-06 06:19 32.52742 130.28801 1907 ft 115 kts 241°
2026-05-06 06:19 32.52346 130.27966 1805 ft 116 kts 243°
2026-05-06 06:19 32.51973 130.27139 1749 ft 113 kts 241°
2026-05-06 06:20 32.51557 130.26341 1683 ft 112 kts 237°
2026-05-06 06:20 32.51092 130.25614 1629 ft 112 kts 231°
2026-05-06 06:20 32.50585 130.24912 1595 ft 110 kts 230°
2026-05-06 06:20 32.49983 130.24359 1499 ft 115 kts 201°
2026-05-06 06:21 32.49233 130.24065 1447 ft 114 kts 195°
2026-05-06 06:21 32.48471 130.23820 1348 ft 117 kts 200°
2026-05-06 06:21 32.47739 130.23383 1208 ft 121 kts 212°
2026-05-06 06:21 32.47059 130.22829 1123 ft 118 kts 224°
2026-05-06 06:22 32.46657 130.22016 1013 ft 111 kts 258°
2026-05-06 06:22 32.46654 130.21152 998 ft 101 kts 283°
2026-05-06 06:22 32.46783 130.20334 1004 ft 97 kts 279°
2026-05-06 06:22 32.46804 130.19561 1062 ft 92 kts 270°
2026-05-06 06:23 32.46787 130.18838 1097 ft 89 kts 275°
2026-05-06 06:23 32.46988 130.18105 880 ft 94 kts 302°
2026-05-06 06:23 32.47306 130.17492 771 ft 85 kts 306°
2026-05-06 06:23 32.47660 130.16904 542 ft 85 kts 308°
2026-05-06 06:24 32.47958 130.16387 377 ft 69 kts 309°
2026-05-06 06:24 32.48200 130.15989 344 ft 49 kts 304°
2026-05-06 06:24 32.48343 130.15743 345 ft 26 kts 304°
2026-05-06 06:24 32.48373 130.15603 347 ft 16 kts 218°
2026-05-06 06:25 32.48297 130.15589 342 ft 5 kts 231°
2026-05-06 06:25 32.48316 130.15562 345 ft 6 kts 323°
2026-05-06 06:25 32.48348 130.15542 346 ft 0 kts 40°